Startpagina
METAR-TAF:

METAR-TAF

Vliegvelden :

Vliegbasis Volkel

Uden, Nederland

breedte: 51-39N, lengte: 005-42E, hoogte: 22 m

Actueel weer

Dit bericht is 14 minuten geleden gemaakt, om 06:06 UTC
Wind 1 kt uit het zuidzuidwesten
Temperatuur 2°C
Vochtigheid 93%
Druk 1030 hPa
Zicht: 2900 m
Geheel bewolkt op 24000 ft
nevel

METAR: EHVK 200606Z AUTO 21001KT 2900 BR OVC240 02/01 Q1030 YLO

Tijdstip: 08:20 (06:20 UTC)

Verwachting

Dit bericht is 21 uur en het 39 minuten geleden gemaakt, om 08:41 UTC
Verwachting geldig van 19 om 09 UTC tot 19 om 21 UTC
Wind 5 kt uit het oostnoordoosten
Zicht 10 km of meer
geen wolken onder 1500 m en geen cumulonimbus

TAF: EHVK 190841Z 1909/1921 06005KT CAVOK

Waarnemingen en weersverwachtingen van meer dan 4000 vliegvelden (METAR en TAF).

De beschikbare stations zijn de gele en rode punten op de kaart.

Ga met uw muis naar het station om de naam te zien.

Klik dan om waarnemingen en weersverwachtingen te zien.

kaart wijzigen: klik op de groene knoppen met een zwart kruis om in te zoomen, op de groene knop met een streepje om uit te zoomen of op de groene pijlen voor aangrenzende kaarten.


METAR-TAF: